createdAt,value
2023-03-29T04:27:08.954Z,40.25
2023-03-29T04:31:13.522Z,37.97
2023-03-29T04:35:18.246Z,27.20
2023-03-29T04:39:22.135Z,29.77
2023-03-29T04:43:25.691Z,27.33
2023-03-29T04:47:30.109Z,28.48
2023-03-29T04:51:33.607Z,34.97
2023-03-29T04:55:37.373Z,51.30
2023-03-29T04:59:40.295Z,55.95
2023-03-29T05:03:43.909Z,40.40
2023-03-29T05:07:47.338Z,27.50
2023-03-29T05:11:50.869Z,23.05
2023-03-29T05:15:54.004Z,19.95
2023-03-29T05:19:57.144Z,24.27
2023-03-29T05:24:00.411Z,23.73
2023-03-29T05:28:07.754Z,25.27
2023-03-29T05:32:18.951Z,35.15
2023-03-29T05:36:31.281Z,30.23
2023-03-29T05:40:35.999Z,29.10
2023-03-29T05:44:40.958Z,48.47
2023-03-29T05:48:44.396Z,52.50
2023-03-29T05:52:53.438Z,63.17
2023-03-29T05:56:56.885Z,67.70
2023-03-29T06:01:05.195Z,67.00
2023-03-29T06:05:22.282Z,60.38
2023-03-29T06:09:27.271Z,54.60
2023-03-29T06:13:52.808Z,55.80
2023-03-29T06:18:05.540Z,54.67
2023-03-29T06:22:14.749Z,50.60
2023-03-29T06:26:33.059Z,43.93
2023-03-29T06:30:38.573Z,22.08
2023-03-29T06:34:49.335Z,35.08
2023-03-29T06:39:42.447Z,40.22
2023-03-29T06:43:56.489Z,55.03
2023-03-29T06:48:00.563Z,49.40
2023-03-29T06:52:26.443Z,11.48
2023-03-29T06:57:05.039Z,11.07
2023-03-29T07:01:10.279Z,15.10
2023-03-29T07:05:14.590Z,20.60
2023-03-29T07:09:20.878Z,17.37
2023-03-29T07:13:31.999Z,8.68
2023-03-29T07:17:44.586Z,16.87
2023-03-29T07:21:56.278Z,18.02
2023-03-29T07:26:28.848Z,10.03
2023-03-29T07:30:33.998Z,10.05
2023-03-29T07:34:53.257Z,12.65
2023-03-29T07:39:16.700Z,11.20
2023-03-29T07:43:26.070Z,9.80
2023-03-29T07:47:33.427Z,4.95
2023-03-29T07:51:44.799Z,6.50
2023-03-29T07:55:57.987Z,3.35
2023-03-29T08:00:52.802Z,7.35
2023-03-29T08:09:25.580Z,7.27
2023-03-29T08:13:35.666Z,4.62
2023-03-29T08:17:49.295Z,6.03
2023-03-29T08:22:15.999Z,4.90
2023-03-29T08:26:29.361Z,2.28
2023-03-29T08:30:36.742Z,7.37
2023-03-29T08:39:16.245Z,4.10
2023-03-29T08:43:50.629Z,7.55
2023-03-29T08:48:08.723Z,11.07
2023-03-29T08:52:38.729Z,6.40
2023-03-29T08:56:49.199Z,7.03
2023-03-29T09:01:04.560Z,7.62
2023-03-29T09:05:47.131Z,7.77
2023-03-29T09:09:56.139Z,5.07
2023-03-29T09:18:57.782Z,6.80
2023-03-29T09:23:26.899Z,5.20
2023-03-29T09:27:33.529Z,5.22
2023-03-29T09:31:43.513Z,4.87
2023-03-29T09:36:13.613Z,4.37
2023-03-29T09:41:24.610Z,6.82
2023-03-29T09:45:33.613Z,4.60
2023-03-29T09:49:53.351Z,3.83
2023-03-29T09:54:13.582Z,4.03
2023-03-29T09:58:33.168Z,3.50
2023-03-29T10:02:58.253Z,4.50
2023-03-29T10:07:36.296Z,5.07
2023-03-29T10:12:10.989Z,4.82
2023-03-29T10:16:44.804Z,3.55
2023-03-29T10:21:06.072Z,7.00
2023-03-29T10:25:16.997Z,3.20
2023-03-29T10:29:28.610Z,3.28
2023-03-29T10:33:35.065Z,4.77
2023-03-29T10:38:06.661Z,10.05
2023-03-29T10:42:23.073Z,7.28
2023-03-29T10:47:20.459Z,6.83
2023-03-29T10:51:34.721Z,6.05
2023-03-29T10:56:36.046Z,5.12
2023-03-29T11:01:11.672Z,8.30
2023-03-29T11:05:18.740Z,8.03
2023-03-29T11:09:47.416Z,5.07
2023-03-29T11:14:09.554Z,4.10
2023-03-29T11:18:57.249Z,8.10
2023-03-29T11:23:34.116Z,10.80
2023-03-29T11:28:05.231Z,10.60
2023-03-29T11:32:48.895Z,7.50
2023-03-29T11:37:08.895Z,9.55
2023-03-29T11:41:58.623Z,8.15
2023-03-29T11:50:58.788Z,6.30
2023-03-29T11:55:29.160Z,12.70
2023-03-29T11:59:42.435Z,9.23
2023-03-29T12:04:45.079Z,4.63
2023-03-29T12:09:10.331Z,4.32
2023-03-29T12:13:46.097Z,6.75
2023-03-29T12:18:17.336Z,10.67
2023-03-29T12:22:20.978Z,10.38
2023-03-29T12:26:53.204Z,4.53
2023-03-29T12:31:07.767Z,8.65
2023-03-29T12:35:33.916Z,4.70
2023-03-29T12:39:38.106Z,5.53
2023-03-29T12:44:04.851Z,7.20
2023-03-29T12:48:15.044Z,8.17
2023-03-29T12:52:34.549Z,7.93
2023-03-29T12:56:42.861Z,9.13
2023-03-29T13:00:48.087Z,18.00
2023-03-29T13:04:52.989Z,10.75
2023-03-29T13:09:20.390Z,17.92
2023-03-29T13:13:37.721Z,9.25
2023-03-29T13:18:06.572Z,10.70
2023-03-29T13:22:56.801Z,8.13
2023-03-29T13:27:14.897Z,5.22
2023-03-29T13:31:29.730Z,6.00
2023-03-29T13:35:51.836Z,5.53
2023-03-29T13:39:55.739Z,3.87
2023-03-29T13:43:58.868Z,5.60
2023-03-29T13:48:30.924Z,7.93
2023-03-29T13:52:44.444Z,5.37
2023-03-29T13:57:16.154Z,9.27
2023-03-29T14:01:57.596Z,6.97
2023-03-29T14:06:02.870Z,4.80
2023-03-29T14:10:06.568Z,9.38
2023-03-29T14:14:10.693Z,5.40
2023-03-29T14:18:17.109Z,11.02
2023-03-29T14:22:21.615Z,4.43
2023-03-29T14:26:25.644Z,6.23
2023-03-29T14:30:29.491Z,10.35
2023-03-29T14:34:33.174Z,8.00
2023-03-29T14:38:37.075Z,7.68
2023-03-29T14:42:39.878Z,6.50
2023-03-29T14:46:45.242Z,8.98
2023-03-29T14:50:48.841Z,8.02
2023-03-29T14:54:56.772Z,5.90
